CMA CGM Musca — 2CAC8 — position and weather

sailwx.info

Track history (hours):
 
Tides and Currents Weather Stations Pressure Air Temp Water Temp Dewpoint Dewpoint Depression Visibility Wind Speed Wind Dir Waves Ship Positions

CMA CGM Musca

Last reported at 2015-May-21 00:06 UTC. Time now 2015-May-30 02:35 UTC.
Position N 32°18' E 033°11'.
Warning: this ship's position is 9 days out of date.

Length 347 m; draft 13.7 m.

Type: Ship (hazmat cat A). MMSI: 235070914.

Date/timePositionNaut miles runAvg speedWind from/ knotsBaromVisibWave heightAir tempDewpointWater temp
2015-May-21 00:06N 32°18' E 033°11'1622.4
2015-May-20 23:24N 32°29' E 033°24'1821.6
2015-May-20 22:33N 32°42' E 033°39'2121.4
2015-May-20 21:33N 32°56' E 033°58'2121.2
2015-May-20 20:33N 33°10' E 034°17'2221.6
2015-May-20 19:33N 33°25' E 034°35'2222.0
2015-May-20 18:33N 33°40' E 034°55'2321.6
2015-May-20 17:29N 33°55' E 035°16'14 3.3
2015-May-20 13:25N 33°55' E 035°32'0 0.0
2015-May-20 05:31N 33°55' E 035°32'40 1.4
2015-May-19 00:04N 33°54' E 034°44'2919.0
2015-May-18 22:34N 33°54' E 034°09'1918.9
2015-May-18 21:33N 33°54' E 033°47'1919.2
2015-May-18 20:34N 33°56' E 033°24'1919.4
2015-May-18 19:34N 33°58' E 033°00'2019.5
2015-May-18 18:33N 33°60' E 032°37'2019.6
2015-May-18 17:33N 34°02' E 032°13'2120.7
2015-May-18 16:33N 34°04' E 031°49'2120.6
2015-May-18 15:33N 34°06' E 031°24'12721.0
2015-May-18 09:31N 34°18' E 028°51'4321.8
2015-May-18 07:33N 34°22' E 027°60'40120.0
2015-May-17 11:30N 35°23' E 019°57'12820.6
2015-May-17 05:16N 35°50' E 017°23'12321.1
2015-May-16 23:26N 36°16' E 014°54'1921.4
2015-May-16 22:33N 36°20' E 014°31'2221.5
2015-May-16 21:33N 36°25' E 014°05'2221.6
2015-May-16 20:34N 36°30' E 013°39'81120.8
2015-May-15 05:31N 36°08' W 003°08'9522.1
2015-May-15 01:13N 35°59' W 005°05'1523.7
2015-May-15 00:33N 35°57' W 005°24'2322.4
2015-May-14 23:32N 35°54' W 005°52'2121.2
2015-May-14 22:33N 35°56' W 006°17'2221.6
2015-May-14 21:33N 36°01' W 006°43'2321.8
2015-May-14 20:30N 36°07' W 007°11'2321.8
2015-May-14 19:26N 36°13' W 007°39'1921.6
2015-May-14 18:33N 36°17' W 008°02'2521.3
2015-May-14 17:24N 36°24' W 008°31'2321.0
2015-May-14 16:19N 36°29' W 008°59'5519.4
2015-May-14 13:30N 37°11' W 009°43'2121.6
2015-May-14 12:31N 37°32' W 009°48'5321.6
2015-May-14 10:03N 38°24' W 010°01'1321.7
2015-May-14 09:26N 38°37' W 010°05'1921.7
2015-May-14 08:32N 38°56' W 010°07'2121.6
2015-May-14 07:33N 39°18' W 010°07'3222.1
2015-May-14 06:06N 39°50' W 010°07'1221.8
2015-May-14 05:33N 40°02' W 010°08'65819.8
2015-May-12 20:23N 49°51' W 003°15'1821.8
2015-May-12 19:33N 49°59' W 002°50'2121.3
2015-May-12 18:33N 50°02' W 002°17'4020.1
2015-May-12 16:33N 49°52' W 001°16'1818.4
2015-May-12 15:33N 49°44' W 000°50'1616.1
2015-May-12 14:33N 49°38' W 000°27'1615.5
2015-May-12 13:33N 49°32' W 000°06'1110.9
2015-May-12 12:33N 49°27' E 000°10'0 0.1
2015-May-12 11:31N 49°27' E 000°10'0 0.0
2015-May-12 10:31N 49°27' E 000°10'0 0.0
2015-May-12 09:33N 49°27' E 000°10'0 0.0
2015-May-12 08:33N 49°27' E 000°10'0 0.0
2015-May-12 07:32N 49°27' E 000°10'0 0.0
2015-May-12 06:32N 49°27' E 000°10'0 0.0
2015-May-12 05:31N 49°27' E 000°10'0 0.0
2015-May-12 04:31N 49°27' E 000°10'0 0.0
2015-May-12 03:31N 49°27' E 000°10'0 0.0
2015-May-12 02:33N 49°27' E 000°10'0 0.0
2015-May-12 01:33N 49°27' E 000°10'0 0.0
2015-May-12 00:32N 49°27' E 000°10'0 0.0
2015-May-11 23:32N 49°27' E 000°10'0 0.0
2015-May-11 22:31N 49°27' E 000°10'0 0.0
2015-May-11 21:32N 49°27' E 000°10'0 0.0
2015-May-11 20:32N 49°27' E 000°10'0 0.0
2015-May-11 19:32N 49°27' E 000°10'0 0.0
2015-May-11 18:31N 49°27' E 000°10'0 0.0
2015-May-11 17:31N 49°27' E 000°10'0 0.0
2015-May-11 16:33N 49°27' E 000°10'0 0.0
2015-May-11 15:33N 49°27' E 000°10'0 0.0
2015-May-11 14:32N 49°27' E 000°10'0 0.0
2015-May-11 13:32N 49°27' E 000°10'0 0.0
2015-May-11 12:32N 49°27' E 000°10'0 0.0
2015-May-11 11:31N 49°27' E 000°10'3 3.3
2015-May-11 10:33N 49°29' E 000°05'1413.9
2015-May-11 09:33N 49°36' W 000°13'1 0.7
2015-May-11 08:31N 49°36' W 000°14'0 0.0
2015-May-11 07:31N 49°36' W 000°14'0 0.1
2015-May-11 06:24N 49°36' W 000°14'0 0.1
2015-May-11 05:33N 49°36' W 000°14'0 0.1
2015-May-11 04:32N 49°36' W 000°14'0 0.0
2015-May-11 03:32N 49°36' W 000°14'0 0.1
2015-May-11 02:32N 49°36' W 000°14'0 0.1
2015-May-11 01:28N 49°36' W 000°14'0 0.0
2015-May-11 00:31N 49°36' W 000°14'  
Track history (hours):
 
Tides and Currents Weather Stations Pressure Air Temp Water Temp Dewpoint Dewpoint Depression Visibility Wind Speed Wind Dir Waves Ship Positions

CMA CGM Musca

Last reported at 2015-May-21 00:06 UTC. Time now 2015-May-30 02:35 UTC.
Position N 32°18' E 033°11'.
Warning: this ship's position is 9 days out of date.

Length 347 m; draft 13.7 m.

Type: Ship (hazmat cat A). MMSI: 235070914.

Date/timePositionNaut miles runAvg speedWind from/ knotsBaromVisibWave heightAir tempDewpointWater temp
2015-May-21 00:06N 32°18' E 033°11'1622.4
2015-May-20 23:24N 32°29' E 033°24'1821.6
2015-May-20 22:33N 32°42' E 033°39'2121.4
2015-May-20 21:33N 32°56' E 033°58'2121.2
2015-May-20 20:33N 33°10' E 034°17'2221.6
2015-May-20 19:33N 33°25' E 034°35'2222.0
2015-May-20 18:33N 33°40' E 034°55'2321.6
2015-May-20 17:29N 33°55' E 035°16'14 3.3
2015-May-20 13:25N 33°55' E 035°32'0 0.0
2015-May-20 05:31N 33°55' E 035°32'40 1.4
2015-May-19 00:04N 33°54' E 034°44'2919.0
2015-May-18 22:34N 33°54' E 034°09'1918.9
2015-May-18 21:33N 33°54' E 033°47'1919.2
2015-May-18 20:34N 33°56' E 033°24'1919.4
2015-May-18 19:34N 33°58' E 033°00'2019.5
2015-May-18 18:33N 33°60' E 032°37'2019.6
2015-May-18 17:33N 34°02' E 032°13'2120.7
2015-May-18 16:33N 34°04' E 031°49'2120.6
2015-May-18 15:33N 34°06' E 031°24'12721.0
2015-May-18 09:31N 34°18' E 028°51'4321.8
2015-May-18 07:33N 34°22' E 027°60'40120.0
2015-May-17 11:30N 35°23' E 019°57'12820.6
2015-May-17 05:16N 35°50' E 017°23'12321.1
2015-May-16 23:26N 36°16' E 014°54'1921.4
2015-May-16 22:33N 36°20' E 014°31'2221.5
2015-May-16 21:33N 36°25' E 014°05'2221.6
2015-May-16 20:34N 36°30' E 013°39'81120.8
2015-May-15 05:31N 36°08' W 003°08'9522.1
2015-May-15 01:13N 35°59' W 005°05'1523.7
2015-May-15 00:33N 35°57' W 005°24'2322.4
2015-May-14 23:32N 35°54' W 005°52'2121.2
2015-May-14 22:33N 35°56' W 006°17'2221.6
2015-May-14 21:33N 36°01' W 006°43'2321.8
2015-May-14 20:30N 36°07' W 007°11'2321.8
2015-May-14 19:26N 36°13' W 007°39'1921.6
2015-May-14 18:33N 36°17' W 008°02'2521.3
2015-May-14 17:24N 36°24' W 008°31'2321.0
2015-May-14 16:19N 36°29' W 008°59'5519.4
2015-May-14 13:30N 37°11' W 009°43'2121.6
2015-May-14 12:31N 37°32' W 009°48'5321.6
2015-May-14 10:03N 38°24' W 010°01'1321.7
2015-May-14 09:26N 38°37' W 010°05'1921.7
2015-May-14 08:32N 38°56' W 010°07'2121.6
2015-May-14 07:33N 39°18' W 010°07'3222.1
2015-May-14 06:06N 39°50' W 010°07'1221.8
2015-May-14 05:33N 40°02' W 010°08'65819.8
2015-May-12 20:23N 49°51' W 003°15'1821.8
2015-May-12 19:33N 49°59' W 002°50'2121.3
2015-May-12 18:33N 50°02' W 002°17'4020.1
2015-May-12 16:33N 49°52' W 001°16'1818.4
2015-May-12 15:33N 49°44' W 000°50'1616.1
2015-May-12 14:33N 49°38' W 000°27'1615.5
2015-May-12 13:33N 49°32' W 000°06'1110.9
2015-May-12 12:33N 49°27' E 000°10'0 0.1
2015-May-12 11:31N 49°27' E 000°10'0 0.0
2015-May-12 10:31N 49°27' E 000°10'0 0.0
2015-May-12 09:33N 49°27' E 000°10'0 0.0
2015-May-12 08:33N 49°27' E 000°10'0 0.0
2015-May-12 07:32N 49°27' E 000°10'0 0.0
2015-May-12 06:32N 49°27' E 000°10'0 0.0
2015-May-12 05:31N 49°27' E 000°10'0 0.0
2015-May-12 04:31N 49°27' E 000°10'0 0.0
2015-May-12 03:31N 49°27' E 000°10'0 0.0
2015-May-12 02:33N 49°27' E 000°10'0 0.0
2015-May-12 01:33N 49°27' E 000°10'0 0.0
2015-May-12 00:32N 49°27' E 000°10'0 0.0
2015-May-11 23:32N 49°27' E 000°10'0 0.0
2015-May-11 22:31N 49°27' E 000°10'0 0.0
2015-May-11 21:32N 49°27' E 000°10'0 0.0
2015-May-11 20:32N 49°27' E 000°10'0 0.0
2015-May-11 19:32N 49°27' E 000°10'0 0.0
2015-May-11 18:31N 49°27' E 000°10'0 0.0
2015-May-11 17:31N 49°27' E 000°10'0 0.0
2015-May-11 16:33N 49°27' E 000°10'0 0.0
2015-May-11 15:33N 49°27' E 000°10'0 0.0
2015-May-11 14:32N 49°27' E 000°10'0 0.0
2015-May-11 13:32N 49°27' E 000°10'0 0.0
2015-May-11 12:32N 49°27' E 000°10'0 0.0
2015-May-11 11:31N 49°27' E 000°10'3 3.3
2015-May-11 10:33N 49°29' E 000°05'1413.9
2015-May-11 09:33N 49°36' W 000°13'1 0.7
2015-May-11 08:31N 49°36' W 000°14'0 0.0
2015-May-11 07:31N 49°36' W 000°14'0 0.1
2015-May-11 06:24N 49°36' W 000°14'0 0.1
2015-May-11 05:33N 49°36' W 000°14'0 0.1
2015-May-11 04:32N 49°36' W 000°14'0 0.0
2015-May-11 03:32N 49°36' W 000°14'0 0.1
2015-May-11 02:32N 49°36' W 000°14'0 0.1
2015-May-11 01:28N 49°36' W 000°14'0 0.0
2015-May-11 00:31N 49°36' W 000°14'  

Dump ship's entire track history